sensor_id;sensor_type;location;lat;lon;timestamp;temperature;humidity
59469;DHT22;45277;52.768;18.262;2023-05-07T00:00:26;5.30;99.90
59469;DHT22;45277;52.768;18.262;2023-05-07T00:02:17;5.40;99.90
59469;DHT22;45277;52.768;18.262;2023-05-07T00:03:49;5.40;99.90
59469;DHT22;45277;52.768;18.262;2023-05-07T00:05:20;5.50;99.90
59469;DHT22;45277;52.768;18.262;2023-05-07T00:06:51;5.50;99.90
59469;DHT22;45277;52.768;18.262;2023-05-07T00:08:23;5.50;99.90
59469;DHT22;45277;52.768;18.262;2023-05-07T00:09:54;5.50;99.90
59469;DHT22;45277;52.768;18.262;2023-05-07T00:11:26;5.60;99.90
59469;DHT22;45277;52.768;18.262;2023-05-07T00:12:58;5.60;99.90
59469;DHT22;45277;52.768;18.262;2023-05-07T00:14:29;5.60;99.90
59469;DHT22;45277;52.768;18.262;2023-05-07T00:16:02;5.60;99.90
59469;DHT22;45277;52.768;18.262;2023-05-07T00:17:33;5.70;99.90
59469;DHT22;45277;52.768;18.262;2023-05-07T00:19:05;5.70;99.90
59469;DHT22;45277;52.768;18.262;2023-05-07T00:20:36;5.70;99.90
59469;DHT22;45277;52.768;18.262;2023-05-07T00:22:08;5.70;99.90
59469;DHT22;45277;52.768;18.262;2023-05-07T00:23:40;5.70;99.90
59469;DHT22;45277;52.768;18.262;2023-05-07T00:25:11;5.70;99.90
59469;DHT22;45277;52.768;18.262;2023-05-07T00:26:42;5.70;99.90
59469;DHT22;45277;52.768;18.262;2023-05-07T00:28:14;5.80;99.90
59469;DHT22;45277;52.768;18.262;2023-05-07T00:29:45;5.80;99.90
59469;DHT22;45277;52.768;18.262;2023-05-07T00:31:17;5.70;99.90
59469;DHT22;45277;52.768;18.262;2023-05-07T00:32:48;5.70;99.90
59469;DHT22;45277;52.768;18.262;2023-05-07T00:34:21;5.70;99.90
59469;DHT22;45277;52.768;18.262;2023-05-07T00:35:53;5.70;99.90
59469;DHT22;45277;52.768;18.262;2023-05-07T00:37:28;5.60;99.90
59469;DHT22;45277;52.768;18.262;2023-05-07T00:39:00;5.60;99.90
59469;DHT22;45277;52.768;18.262;2023-05-07T00:40:34;5.50;99.90
59469;DHT22;45277;52.768;18.262;2023-05-07T00:42:06;5.50;99.90
59469;DHT22;45277;52.768;18.262;2023-05-07T00:43:37;5.50;99.90
59469;DHT22;45277;52.768;18.262;2023-05-07T00:45:08;5.40;99.90
59469;DHT22;45277;52.768;18.262;2023-05-07T00:46:42;5.40;99.90
59469;DHT22;45277;52.768;18.262;2023-05-07T00:48:13;5.30;99.90
59469;DHT22;45277;52.768;18.262;2023-05-07T00:49:45;5.30;99.90
59469;DHT22;45277;52.768;18.262;2023-05-07T00:51:17;5.20;99.90
59469;DHT22;45277;52.768;18.262;2023-05-07T00:52:49;5.20;99.90
59469;DHT22;45277;52.768;18.262;2023-05-07T00:54:21;5.10;99.90
59469;DHT22;45277;52.768;18.262;2023-05-07T00:55:53;5.10;99.90
59469;DHT22;45277;52.768;18.262;2023-05-07T00:57:24;5.00;99.90
59469;DHT22;45277;52.768;18.262;2023-05-07T00:58:56;5.00;99.90
59469;DHT22;45277;52.768;18.262;2023-05-07T01:00:28;4.90;99.90
59469;DHT22;45277;52.768;18.262;2023-05-07T01:01:59;5.00;99.90
59469;DHT22;45277;52.768;18.262;2023-05-07T01:03:31;5.00;99.90
59469;DHT22;45277;52.768;18.262;2023-05-07T01:05:04;5.10;99.90
59469;DHT22;45277;52.768;18.262;2023-05-07T01:06:36;5.10;99.90
59469;DHT22;45277;52.768;18.262;2023-05-07T01:08:08;5.20;99.90
59469;DHT22;45277;52.768;18.262;2023-05-07T01:09:40;5.30;99.90
59469;DHT22;45277;52.768;18.262;2023-05-07T01:11:11;5.30;99.90
59469;DHT22;45277;52.768;18.262;2023-05-07T01:12:45;5.40;99.90
59469;DHT22;45277;52.768;18.262;2023-05-07T01:14:18;5.40;99.90
59469;DHT22;45277;52.768;18.262;2023-05-07T01:15:51;5.40;99.90
59469;DHT22;45277;52.768;18.262;2023-05-07T01:17:23;5.50;99.90
59469;DHT22;45277;52.768;18.262;2023-05-07T01:18:55;5.50;99.90
59469;DHT22;45277;52.768;18.262;2023-05-07T01:20:27;5.50;99.90
59469;DHT22;45277;52.768;18.262;2023-05-07T01:22:08;5.60;99.90
59469;DHT22;45277;52.768;18.262;2023-05-07T01:23:39;5.60;99.90
59469;DHT22;45277;52.768;18.262;2023-05-07T01:25:12;5.60;99.90
59469;DHT22;45277;52.768;18.262;2023-05-07T01:26:44;5.60;99.90
59469;DHT22;45277;52.768;18.262;2023-05-07T01:28:16;5.60;99.90
59469;DHT22;45277;52.768;18.262;2023-05-07T01:29:47;5.70;99.90
59469;DHT22;45277;52.768;18.262;2023-05-07T01:31:19;5.70;99.90
59469;DHT22;45277;52.768;18.262;2023-05-07T01:32:53;5.70;99.90
59469;DHT22;45277;52.768;18.262;2023-05-07T01:34:31;5.70;99.90
59469;DHT22;45277;52.768;18.262;2023-05-07T01:36:05;5.70;99.90
59469;DHT22;45277;52.768;18.262;2023-05-07T01:37:39;5.80;99.90
59469;DHT22;45277;52.768;18.262;2023-05-07T01:39:12;5.70;99.90
59469;DHT22;45277;52.768;18.262;2023-05-07T01:40:43;5.80;99.90
59469;DHT22;45277;52.768;18.262;2023-05-07T01:42:15;5.80;99.90
59469;DHT22;45277;52.768;18.262;2023-05-07T01:43:48;5.80;99.90
59469;DHT22;45277;52.768;18.262;2023-05-07T01:45:19;5.80;99.90
59469;DHT22;45277;52.768;18.262;2023-05-07T01:46:51;5.80;99.90
59469;DHT22;45277;52.768;18.262;2023-05-07T01:48:24;5.80;99.90
59469;DHT22;45277;52.768;18.262;2023-05-07T01:49:56;5.70;99.90
59469;DHT22;45277;52.768;18.262;2023-05-07T01:51:28;5.70;99.90
59469;DHT22;45277;52.768;18.262;2023-05-07T01:53:01;5.70;99.90
59469;DHT22;45277;52.768;18.262;2023-05-07T01:54:32;5.60;99.90
59469;DHT22;45277;52.768;18.262;2023-05-07T01:56:04;5.60;99.90
59469;DHT22;45277;52.768;18.262;2023-05-07T01:57:36;5.50;99.90
59469;DHT22;45277;52.768;18.262;2023-05-07T01:59:07;5.40;99.90
59469;DHT22;45277;52.768;18.262;2023-05-07T02:00:39;5.30;99.90
59469;DHT22;45277;52.768;18.262;2023-05-07T02:02:12;5.20;99.90
59469;DHT22;45277;52.768;18.262;2023-05-07T02:03:43;5.20;99.90
59469;DHT22;45277;52.768;18.262;2023-05-07T02:05:15;5.10;99.90
59469;DHT22;45277;52.768;18.262;2023-05-07T02:06:46;5.00;99.90
59469;DHT22;45277;52.768;18.262;2023-05-07T02:08:18;4.90;99.90
59469;DHT22;45277;52.768;18.262;2023-05-07T02:09:49;4.80;99.90
59469;DHT22;45277;52.768;18.262;2023-05-07T02:11:21;4.70;99.90
59469;DHT22;45277;52.768;18.262;2023-05-07T02:12:52;4.70;99.90
59469;DHT22;45277;52.768;18.262;2023-05-07T02:14:23;4.60;99.90
59469;DHT22;45277;52.768;18.262;2023-05-07T02:15:55;4.60;99.90
59469;DHT22;45277;52.768;18.262;2023-05-07T02:17:27;4.40;99.90
59469;DHT22;45277;52.768;18.262;2023-05-07T02:18:58;4.30;99.90
59469;DHT22;45277;52.768;18.262;2023-05-07T02:20:30;4.20;99.90
59469;DHT22;45277;52.768;18.262;2023-05-07T02:22:01;4.20;99.90
59469;DHT22;45277;52.768;18.262;2023-05-07T02:23:33;4.10;99.90
59469;DHT22;45277;52.768;18.262;2023-05-07T02:25:04;4.00;99.90
59469;DHT22;45277;52.768;18.262;2023-05-07T02:26:36;3.90;99.90
59469;DHT22;45277;52.768;18.262;2023-05-07T02:28:07;3.90;99.90
59469;DHT22;45277;52.768;18.262;2023-05-07T02:29:39;3.90;99.90
59469;DHT22;45277;52.768;18.262;2023-05-07T02:31:10;3.90;99.90
59469;DHT22;45277;52.768;18.262;2023-05-07T02:32:41;3.80;99.90
59469;DHT22;45277;52.768;18.262;2023-05-07T02:34:13;3.80;99.90
59469;DHT22;45277;52.768;18.262;2023-05-07T02:35:45;3.80;99.90
59469;DHT22;45277;52.768;18.262;2023-05-07T02:37:16;4.00;99.90
59469;DHT22;45277;52.768;18.262;2023-05-07T02:38:48;3.90;99.90
59469;DHT22;45277;52.768;18.262;2023-05-07T02:40:19;3.90;99.90
59469;DHT22;45277;52.768;18.262;2023-05-07T02:41:50;3.90;99.90
59469;DHT22;45277;52.768;18.262;2023-05-07T02:43:22;3.90;99.90
59469;DHT22;45277;52.768;18.262;2023-05-07T02:44:53;3.90;99.90
59469;DHT22;45277;52.768;18.262;2023-05-07T02:46:25;3.90;99.90
59469;DHT22;45277;52.768;18.262;2023-05-07T02:47:56;3.80;99.90
59469;DHT22;45277;52.768;18.262;2023-05-07T02:49:28;3.80;99.90
59469;DHT22;45277;52.768;18.262;2023-05-07T02:51:00;3.80;99.90
59469;DHT22;45277;52.768;18.262;2023-05-07T02:52:31;3.90;99.90
59469;DHT22;45277;52.768;18.262;2023-05-07T02:54:03;3.90;99.90
59469;DHT22;45277;52.768;18.262;2023-05-07T02:55:34;3.80;99.90
59469;DHT22;45277;52.768;18.262;2023-05-07T02:57:06;3.70;99.90
59469;DHT22;45277;52.768;18.262;2023-05-07T02:58:37;3.60;99.90
59469;DHT22;45277;52.768;18.262;2023-05-07T03:00:12;3.60;99.90
59469;DHT22;45277;52.768;18.262;2023-05-07T03:01:44;3.60;99.90
59469;DHT22;45277;52.768;18.262;2023-05-07T03:03:16;3.60;99.90
59469;DHT22;45277;52.768;18.262;2023-05-07T03:04:48;3.70;99.90
59469;DHT22;45277;52.768;18.262;2023-05-07T03:06:19;3.60;99.90
59469;DHT22;45277;52.768;18.262;2023-05-07T03:07:50;3.60;99.90
59469;DHT22;45277;52.768;18.262;2023-05-07T03:09:22;3.60;99.90
59469;DHT22;45277;52.768;18.262;2023-05-07T03:10:54;3.60;99.90
59469;DHT22;45277;52.768;18.262;2023-05-07T03:12:25;3.50;99.90
59469;DHT22;45277;52.768;18.262;2023-05-07T03:13:56;3.60;99.90
59469;DHT22;45277;52.768;18.262;2023-05-07T03:15:28;3.70;99.90
59469;DHT22;45277;52.768;18.262;2023-05-07T03:16:59;3.70;99.90
59469;DHT22;45277;52.768;18.262;2023-05-07T03:18:30;3.70;99.90
59469;DHT22;45277;52.768;18.262;2023-05-07T03:20:02;3.80;99.90
59469;DHT22;45277;52.768;18.262;2023-05-07T03:21:34;3.80;99.90
59469;DHT22;45277;52.768;18.262;2023-05-07T03:23:05;3.80;99.90
59469;DHT22;45277;52.768;18.262;2023-05-07T03:24:37;3.70;99.90
59469;DHT22;45277;52.768;18.262;2023-05-07T03:26:08;3.70;99.90
59469;DHT22;45277;52.768;18.262;2023-05-07T03:27:39;3.70;99.90
59469;DHT22;45277;52.768;18.262;2023-05-07T03:29:13;3.60;99.90
59469;DHT22;45277;52.768;18.262;2023-05-07T03:30:44;3.60;99.90
59469;DHT22;45277;52.768;18.262;2023-05-07T03:32:15;3.60;99.90
59469;DHT22;45277;52.768;18.262;2023-05-07T03:33:54;3.60;99.90
59469;DHT22;45277;52.768;18.262;2023-05-07T03:35:26;3.60;99.90
59469;DHT22;45277;52.768;18.262;2023-05-07T03:36:57;3.60;99.90
59469;DHT22;45277;52.768;18.262;2023-05-07T03:38:29;3.50;99.90
59469;DHT22;45277;52.768;18.262;2023-05-07T03:40:00;3.50;99.90
59469;DHT22;45277;52.768;18.262;2023-05-07T03:41:33;3.50;99.90
59469;DHT22;45277;52.768;18.262;2023-05-07T03:43:04;3.50;99.90
59469;DHT22;45277;52.768;18.262;2023-05-07T03:44:36;3.60;99.90
59469;DHT22;45277;52.768;18.262;2023-05-07T03:46:07;3.50;99.90
59469;DHT22;45277;52.768;18.262;2023-05-07T03:47:39;3.50;99.90
59469;DHT22;45277;52.768;18.262;2023-05-07T03:49:10;3.60;99.90
59469;DHT22;45277;52.768;18.262;2023-05-07T03:50:41;3.60;99.90
59469;DHT22;45277;52.768;18.262;2023-05-07T03:52:13;3.70;99.90
59469;DHT22;45277;52.768;18.262;2023-05-07T03:53:45;3.70;99.90
59469;DHT22;45277;52.768;18.262;2023-05-07T03:55:16;3.70;99.90
59469;DHT22;45277;52.768;18.262;2023-05-07T03:56:48;3.70;99.90
59469;DHT22;45277;52.768;18.262;2023-05-07T03:58:19;3.70;99.90
59469;DHT22;45277;52.768;18.262;2023-05-07T03:59:51;3.70;99.90
59469;DHT22;45277;52.768;18.262;2023-05-07T04:01:22;3.80;99.90
59469;DHT22;45277;52.768;18.262;2023-05-07T04:02:54;3.80;99.90
59469;DHT22;45277;52.768;18.262;2023-05-07T04:04:25;3.90;99.90
59469;DHT22;45277;52.768;18.262;2023-05-07T04:05:57;3.90;99.90
59469;DHT22;45277;52.768;18.262;2023-05-07T04:07:28;4.00;99.90
59469;DHT22;45277;52.768;18.262;2023-05-07T04:08:59;4.00;99.90
59469;DHT22;45277;52.768;18.262;2023-05-07T04:10:31;4.00;99.90
59469;DHT22;45277;52.768;18.262;2023-05-07T04:12:03;4.10;99.90
59469;DHT22;45277;52.768;18.262;2023-05-07T04:13:34;4.10;99.90
59469;DHT22;45277;52.768;18.262;2023-05-07T04:15:06;4.20;99.90
59469;DHT22;45277;52.768;18.262;2023-05-07T04:16:37;4.30;99.90
59469;DHT22;45277;52.768;18.262;2023-05-07T04:18:09;4.30;99.90
59469;DHT22;45277;52.768;18.262;2023-05-07T04:19:41;4.30;99.90
59469;DHT22;45277;52.768;18.262;2023-05-07T04:21:19;4.40;99.90
59469;DHT22;45277;52.768;18.262;2023-05-07T04:22:51;4.50;99.90
59469;DHT22;45277;52.768;18.262;2023-05-07T04:24:23;4.50;99.90
59469;DHT22;45277;52.768;18.262;2023-05-07T04:25:54;4.60;99.90
59469;DHT22;45277;52.768;18.262;2023-05-07T04:27:26;4.70;99.90
59469;DHT22;45277;52.768;18.262;2023-05-07T04:28:59;4.70;99.90
59469;DHT22;45277;52.768;18.262;2023-05-07T04:30:30;4.80;99.90
59469;DHT22;45277;52.768;18.262;2023-05-07T04:32:02;4.80;99.90
59469;DHT22;45277;52.768;18.262;2023-05-07T04:33:34;4.90;99.90
59469;DHT22;45277;52.768;18.262;2023-05-07T04:35:05;4.90;99.90
59469;DHT22;45277;52.768;18.262;2023-05-07T04:36:38;5.00;99.90
59469;DHT22;45277;52.768;18.262;2023-05-07T04:38:09;5.00;99.90
59469;DHT22;45277;52.768;18.262;2023-05-07T04:39:42;5.10;99.90
59469;DHT22;45277;52.768;18.262;2023-05-07T04:41:13;5.20;99.90
59469;DHT22;45277;52.768;18.262;2023-05-07T04:42:45;5.20;99.90
59469;DHT22;45277;52.768;18.262;2023-05-07T04:44:16;5.20;99.90
59469;DHT22;45277;52.768;18.262;2023-05-07T04:45:47;5.30;99.90
59469;DHT22;45277;52.768;18.262;2023-05-07T04:47:20;5.30;99.90
59469;DHT22;45277;52.768;18.262;2023-05-07T04:48:52;5.40;99.90
59469;DHT22;45277;52.768;18.262;2023-05-07T04:50:23;5.40;99.90
59469;DHT22;45277;52.768;18.262;2023-05-07T04:51:55;5.50;99.90
59469;DHT22;45277;52.768;18.262;2023-05-07T04:53:27;5.60;99.90
59469;DHT22;45277;52.768;18.262;2023-05-07T04:55:01;5.70;99.90
59469;DHT22;45277;52.768;18.262;2023-05-07T04:56:33;5.70;99.90
59469;DHT22;45277;52.768;18.262;2023-05-07T04:58:04;5.80;99.90
59469;DHT22;45277;52.768;18.262;2023-05-07T04:59:36;5.80;99.90
59469;DHT22;45277;52.768;18.262;2023-05-07T05:01:07;5.90;99.90
59469;DHT22;45277;52.768;18.262;2023-05-07T05:02:39;6.00;99.90
59469;DHT22;45277;52.768;18.262;2023-05-07T05:04:10;6.00;99.90
59469;DHT22;45277;52.768;18.262;2023-05-07T05:05:42;6.10;99.90
59469;DHT22;45277;52.768;18.262;2023-05-07T05:07:13;6.10;99.90
59469;DHT22;45277;52.768;18.262;2023-05-07T05:08:44;6.20;99.90
59469;DHT22;45277;52.768;18.262;2023-05-07T05:10:16;6.30;99.90
59469;DHT22;45277;52.768;18.262;2023-05-07T05:11:47;6.40;99.90
59469;DHT22;45277;52.768;18.262;2023-05-07T05:13:18;6.50;99.90
59469;DHT22;45277;52.768;18.262;2023-05-07T05:14:50;6.50;99.90
59469;DHT22;45277;52.768;18.262;2023-05-07T05:16:22;6.60;99.90
59469;DHT22;45277;52.768;18.262;2023-05-07T05:17:53;6.70;99.90
59469;DHT22;45277;52.768;18.262;2023-05-07T05:19:25;6.70;99.90
59469;DHT22;45277;52.768;18.262;2023-05-07T05:20:56;6.80;99.90
59469;DHT22;45277;52.768;18.262;2023-05-07T05:22:27;6.90;99.90
59469;DHT22;45277;52.768;18.262;2023-05-07T05:24:02;6.90;99.90
59469;DHT22;45277;52.768;18.262;2023-05-07T05:25:33;7.00;99.90
59469;DHT22;45277;52.768;18.262;2023-05-07T05:27:05;7.00;99.90
59469;DHT22;45277;52.768;18.262;2023-05-07T05:28:36;7.10;99.90
59469;DHT22;45277;52.768;18.262;2023-05-07T05:30:08;7.10;99.90
59469;DHT22;45277;52.768;18.262;2023-05-07T05:31:40;7.20;99.90
59469;DHT22;45277;52.768;18.262;2023-05-07T05:33:12;7.20;99.90
59469;DHT22;45277;52.768;18.262;2023-05-07T05:34:44;7.30;99.90
59469;DHT22;45277;52.768;18.262;2023-05-07T05:36:16;7.30;99.90
59469;DHT22;45277;52.768;18.262;2023-05-07T05:37:47;7.40;99.90
59469;DHT22;45277;52.768;18.262;2023-05-07T05:39:19;7.40;99.90
59469;DHT22;45277;52.768;18.262;2023-05-07T05:40:50;7.50;99.90
59469;DHT22;45277;52.768;18.262;2023-05-07T05:42:22;7.50;99.90
59469;DHT22;45277;52.768;18.262;2023-05-07T05:43:53;7.60;99.90
59469;DHT22;45277;52.768;18.262;2023-05-07T05:45:24;7.60;99.90
59469;DHT22;45277;52.768;18.262;2023-05-07T05:46:56;7.70;99.90
59469;DHT22;45277;52.768;18.262;2023-05-07T05:48:30;7.80;99.90
59469;DHT22;45277;52.768;18.262;2023-05-07T05:50:01;7.90;99.90
59469;DHT22;45277;52.768;18.262;2023-05-07T05:51:33;7.90;99.90
59469;DHT22;45277;52.768;18.262;2023-05-07T05:53:05;8.00;99.90
59469;DHT22;45277;52.768;18.262;2023-05-07T05:54:36;8.10;99.90
59469;DHT22;45277;52.768;18.262;2023-05-07T05:56:08;8.10;99.90
59469;DHT22;45277;52.768;18.262;2023-05-07T05:57:39;8.20;99.90
59469;DHT22;45277;52.768;18.262;2023-05-07T05:59:11;8.20;99.90
59469;DHT22;45277;52.768;18.262;2023-05-07T06:00:43;8.30;99.90
59469;DHT22;45277;52.768;18.262;2023-05-07T06:02:15;8.30;99.90
59469;DHT22;45277;52.768;18.262;2023-05-07T06:03:47;8.40;99.90
59469;DHT22;45277;52.768;18.262;2023-05-07T06:05:19;8.50;99.90
59469;DHT22;45277;52.768;18.262;2023-05-07T06:06:50;8.50;99.90
59469;DHT22;45277;52.768;18.262;2023-05-07T06:08:21;8.60;99.90
59469;DHT22;45277;52.768;18.262;2023-05-07T06:09:53;8.60;99.90
59469;DHT22;45277;52.768;18.262;2023-05-07T06:11:25;8.60;99.90
59469;DHT22;45277;52.768;18.262;2023-05-07T06:12:56;8.70;99.90
59469;DHT22;45277;52.768;18.262;2023-05-07T06:14:28;8.80;99.90
59469;DHT22;45277;52.768;18.262;2023-05-07T06:16:00;8.80;99.90
59469;DHT22;45277;52.768;18.262;2023-05-07T06:17:31;8.80;99.90
59469;DHT22;45277;52.768;18.262;2023-05-07T06:19:03;8.90;99.90
59469;DHT22;45277;52.768;18.262;2023-05-07T06:20:35;8.90;99.90
59469;DHT22;45277;52.768;18.262;2023-05-07T06:22:07;9.00;99.90
59469;DHT22;45277;52.768;18.262;2023-05-07T06:23:39;9.00;99.90
59469;DHT22;45277;52.768;18.262;2023-05-07T06:25:11;9.00;99.90
59469;DHT22;45277;52.768;18.262;2023-05-07T06:26:43;9.10;99.90
59469;DHT22;45277;52.768;18.262;2023-05-07T06:28:15;9.10;99.90
59469;DHT22;45277;52.768;18.262;2023-05-07T06:29:48;9.10;99.90
59469;DHT22;45277;52.768;18.262;2023-05-07T06:31:20;9.20;99.90
59469;DHT22;45277;52.768;18.262;2023-05-07T06:32:52;9.30;99.90
59469;DHT22;45277;52.768;18.262;2023-05-07T06:34:23;9.30;99.90
59469;DHT22;45277;52.768;18.262;2023-05-07T06:35:55;9.40;99.90
59469;DHT22;45277;52.768;18.262;2023-05-07T06:37:27;9.40;99.90
59469;DHT22;45277;52.768;18.262;2023-05-07T06:38:58;9.50;99.90
59469;DHT22;45277;52.768;18.262;2023-05-07T06:40:29;9.60;99.90
59469;DHT22;45277;52.768;18.262;2023-05-07T06:42:01;9.70;99.90
59469;DHT22;45277;52.768;18.262;2023-05-07T06:43:33;9.70;99.90
59469;DHT22;45277;52.768;18.262;2023-05-07T06:45:05;9.70;99.90
59469;DHT22;45277;52.768;18.262;2023-05-07T06:46:37;9.70;99.90
59469;DHT22;45277;52.768;18.262;2023-05-07T06:48:08;9.70;99.90
59469;DHT22;45277;52.768;18.262;2023-05-07T06:49:40;9.80;99.90
59469;DHT22;45277;52.768;18.262;2023-05-07T06:51:11;9.90;99.90
59469;DHT22;45277;52.768;18.262;2023-05-07T06:52:43;10.00;99.90
59469;DHT22;45277;52.768;18.262;2023-05-07T06:54:14;10.00;99.90
59469;DHT22;45277;52.768;18.262;2023-05-07T06:55:46;10.10;99.90
59469;DHT22;45277;52.768;18.262;2023-05-07T06:57:18;10.20;99.90
59469;DHT22;45277;52.768;18.262;2023-05-07T06:58:49;10.20;99.90
59469;DHT22;45277;52.768;18.262;2023-05-07T07:00:21;10.30;99.90
59469;DHT22;45277;52.768;18.262;2023-05-07T07:01:52;10.30;99.90
59469;DHT22;45277;52.768;18.262;2023-05-07T07:03:24;10.40;99.90
59469;DHT22;45277;52.768;18.262;2023-05-07T07:04:55;10.50;99.90
59469;DHT22;45277;52.768;18.262;2023-05-07T07:06:27;10.50;99.90
59469;DHT22;45277;52.768;18.262;2023-05-07T07:07:58;10.60;99.90
59469;DHT22;45277;52.768;18.262;2023-05-07T07:09:30;10.60;99.90
59469;DHT22;45277;52.768;18.262;2023-05-07T07:11:02;10.60;99.90
59469;DHT22;45277;52.768;18.262;2023-05-07T07:12:34;10.80;99.90
59469;DHT22;45277;52.768;18.262;2023-05-07T07:14:05;10.80;99.90
59469;DHT22;45277;52.768;18.262;2023-05-07T07:15:37;10.90;99.90
59469;DHT22;45277;52.768;18.262;2023-05-07T07:17:08;10.90;99.90
59469;DHT22;45277;52.768;18.262;2023-05-07T07:18:40;10.90;99.90
59469;DHT22;45277;52.768;18.262;2023-05-07T07:20:12;11.10;99.90
59469;DHT22;45277;52.768;18.262;2023-05-07T07:21:43;11.10;99.90
59469;DHT22;45277;52.768;18.262;2023-05-07T07:23:16;11.10;99.90
59469;DHT22;45277;52.768;18.262;2023-05-07T07:24:47;11.30;99.90
59469;DHT22;45277;52.768;18.262;2023-05-07T07:26:19;11.40;99.90
59469;DHT22;45277;52.768;18.262;2023-05-07T07:27:51;11.50;99.90
59469;DHT22;45277;52.768;18.262;2023-05-07T07:29:22;11.50;99.90
59469;DHT22;45277;52.768;18.262;2023-05-07T07:30:53;11.50;99.90
59469;DHT22;45277;52.768;18.262;2023-05-07T07:32:25;11.60;99.90
59469;DHT22;45277;52.768;18.262;2023-05-07T07:33:57;11.60;99.90
59469;DHT22;45277;52.768;18.262;2023-05-07T07:35:29;11.70;99.90
59469;DHT22;45277;52.768;18.262;2023-05-07T07:37:01;11.80;99.90
59469;DHT22;45277;52.768;18.262;2023-05-07T07:38:36;11.90;99.90
59469;DHT22;45277;52.768;18.262;2023-05-07T07:40:08;11.80;99.90
59469;DHT22;45277;52.768;18.262;2023-05-07T07:41:40;11.80;99.90
59469;DHT22;45277;52.768;18.262;2023-05-07T07:43:11;11.80;99.90
59469;DHT22;45277;52.768;18.262;2023-05-07T07:44:43;11.90;99.90
59469;DHT22;45277;52.768;18.262;2023-05-07T07:46:14;11.90;99.90
59469;DHT22;45277;52.768;18.262;2023-05-07T07:47:46;11.90;99.90
59469;DHT22;45277;52.768;18.262;2023-05-07T07:49:18;11.90;99.90
59469;DHT22;45277;52.768;18.262;2023-05-07T07:50:50;11.80;99.90
59469;DHT22;45277;52.768;18.262;2023-05-07T07:52:24;12.00;99.90
59469;DHT22;45277;52.768;18.262;2023-05-07T07:53:55;12.20;99.90
59469;DHT22;45277;52.768;18.262;2023-05-07T07:55:29;12.30;99.90
59469;DHT22;45277;52.768;18.262;2023-05-07T07:57:02;12.40;99.90
59469;DHT22;45277;52.768;18.262;2023-05-07T07:58:33;12.50;99.90
59469;DHT22;45277;52.768;18.262;2023-05-07T08:00:07;12.60;99.90
59469;DHT22;45277;52.768;18.262;2023-05-07T08:01:38;12.60;99.90
59469;DHT22;45277;52.768;18.262;2023-05-07T08:03:10;12.70;99.90
59469;DHT22;45277;52.768;18.262;2023-05-07T08:04:42;12.70;99.90
59469;DHT22;45277;52.768;18.262;2023-05-07T08:06:53;12.70;99.90
59469;DHT22;45277;52.768;18.262;2023-05-07T08:08:25;12.60;99.90
59469;DHT22;45277;52.768;18.262;2023-05-07T08:09:57;12.70;97.80
59469;DHT22;45277;52.768;18.262;2023-05-07T08:11:28;12.80;90.20
59469;DHT22;45277;52.768;18.262;2023-05-07T08:13:00;12.80;73.00
59469;DHT22;45277;52.768;18.262;2023-05-07T08:14:33;12.80;74.60
59469;DHT22;45277;52.768;18.262;2023-05-07T08:16:05;13.10;78.60
59469;DHT22;45277;52.768;18.262;2023-05-07T08:17:37;13.50;70.40
59469;DHT22;45277;52.768;18.262;2023-05-07T08:19:08;13.60;46.00
59469;DHT22;45277;52.768;18.262;2023-05-07T08:20:41;13.90;66.00
59469;DHT22;45277;52.768;18.262;2023-05-07T08:22:12;14.10;46.80
59469;DHT22;45277;52.768;18.262;2023-05-07T08:23:44;13.90;27.40
59469;DHT22;45277;52.768;18.262;2023-05-07T08:25:15;14.10;48.00
59469;DHT22;45277;52.768;18.262;2023-05-07T08:26:47;14.50;39.40
59469;DHT22;45277;52.768;18.262;2023-05-07T08:28:18;14.60;26.50
59469;DHT22;45277;52.768;18.262;2023-05-07T08:29:50;14.50;23.20
59469;DHT22;45277;52.768;18.262;2023-05-07T08:31:22;14.50;25.60
59469;DHT22;45277;52.768;18.262;2023-05-07T08:32:53;14.60;27.20
59469;DHT22;45277;52.768;18.262;2023-05-07T08:34:25;14.50;17.30
59469;DHT22;45277;52.768;18.262;2023-05-07T08:35:57;14.50;19.80
59469;DHT22;45277;52.768;18.262;2023-05-07T08:37:28;14.30;22.20
59469;DHT22;45277;52.768;18.262;2023-05-07T08:39:00;14.20;31.10
59469;DHT22;45277;52.768;18.262;2023-05-07T08:40:39;14.40;40.70
59469;DHT22;45277;52.768;18.262;2023-05-07T08:42:13;14.60;34.50
59469;DHT22;45277;52.768;18.262;2023-05-07T08:43:48;14.80;25.30
59469;DHT22;45277;52.768;18.262;2023-05-07T08:45:24;14.80;16.50
59469;DHT22;45277;52.768;18.262;2023-05-07T08:46:58;14.80;24.50
59469;DHT22;45277;52.768;18.262;2023-05-07T08:48:31;14.80;18.60
59469;DHT22;45277;52.768;18.262;2023-05-07T08:50:05;14.90;26.20
59469;DHT22;45277;52.768;18.262;2023-05-07T08:51:37;14.90;39.00
59469;DHT22;45277;52.768;18.262;2023-05-07T08:53:09;15.00;9.90
59469;DHT22;45277;52.768;18.262;2023-05-07T08:54:41;14.90;7.20
59469;DHT22;45277;52.768;18.262;2023-05-07T08:56:13;15.00;13.90
59469;DHT22;45277;52.768;18.262;2023-05-07T08:57:46;15.10;12.70
59469;DHT22;45277;52.768;18.262;2023-05-07T08:59:19;15.10;14.40
59469;DHT22;45277;52.768;18.262;2023-05-07T09:00:53;15.20;26.00
59469;DHT22;45277;52.768;18.262;2023-05-07T09:02:25;15.50;32.10
59469;DHT22;45277;52.768;18.262;2023-05-07T09:03:57;15.80;7.40
59469;DHT22;45277;52.768;18.262;2023-05-07T09:05:28;16.10;3.30
59469;DHT22;45277;52.768;18.262;2023-05-07T09:07:00;16.00;2.00
59469;DHT22;45277;52.768;18.262;2023-05-07T09:08:36;15.80;1.00
59469;DHT22;45277;52.768;18.262;2023-05-07T09:10:09;15.60;1.00
59469;DHT22;45277;52.768;18.262;2023-05-07T09:11:40;15.60;8.80
59469;DHT22;45277;52.768;18.262;2023-05-07T09:13:12;15.60;2.70
59469;DHT22;45277;52.768;18.262;2023-05-07T09:14:45;15.80;1.00
59469;DHT22;45277;52.768;18.262;2023-05-07T09:16:20;16.00;1.00
59469;DHT22;45277;52.768;18.262;2023-05-07T09:17:52;15.80;1.00
59469;DHT22;45277;52.768;18.262;2023-05-07T09:19:25;15.70;3.90
59469;DHT22;45277;52.768;18.262;2023-05-07T09:20:56;15.60;6.70
59469;DHT22;45277;52.768;18.262;2023-05-07T09:22:28;15.60;4.60
59469;DHT22;45277;52.768;18.262;2023-05-07T09:24:02;15.60;3.40
59469;DHT22;45277;52.768;18.262;2023-05-07T09:25:34;15.80;1.00
59469;DHT22;45277;52.768;18.262;2023-05-07T09:27:07;15.70;1.00
59469;DHT22;45277;52.768;18.262;2023-05-07T09:28:40;16.20;8.50
59469;DHT22;45277;52.768;18.262;2023-05-07T09:30:12;16.20;1.00
59469;DHT22;45277;52.768;18.262;2023-05-07T09:31:44;16.40;2.10
59469;DHT22;45277;52.768;18.262;2023-05-07T09:33:16;16.80;4.00
59469;DHT22;45277;52.768;18.262;2023-05-07T09:34:48;17.00;1.00
59469;DHT22;45277;52.768;18.262;2023-05-07T09:36:19;16.70;1.00
59469;DHT22;45277;52.768;18.262;2023-05-07T09:37:53;16.40;1.00
59469;DHT22;45277;52.768;18.262;2023-05-07T09:39:25;16.00;1.00